createdAt,value
2019-04-10T00:00:53.152Z,99706.78
2019-04-10T00:05:58.417Z,99704.61
2019-04-10T00:11:02.943Z,99706.94
2019-04-10T00:16:07.684Z,99713.95
2019-04-10T00:21:13.999Z,99713.13
2019-04-10T00:26:19.648Z,99705.78
2019-04-10T00:31:24.398Z,99711.45
2019-04-10T00:36:29.999Z,99711.61
2019-04-10T00:41:34.528Z,99711.70
2019-04-10T00:46:40.142Z,99710.00
2019-04-10T00:51:45.556Z,99709.09
2019-04-10T00:56:50.609Z,99718.27
2019-04-10T01:01:56.206Z,99714.82
2019-04-10T01:07:02.252Z,99723.91
2019-04-10T01:12:07.709Z,99722.16
2019-04-10T01:17:12.198Z,99719.99
2019-04-10T01:22:17.046Z,99706.53
2019-04-10T01:27:21.603Z,99709.64
2019-04-10T01:32:26.229Z,99711.43
2019-04-10T01:37:30.677Z,99703.61
2019-04-10T01:42:35.190Z,99704.98
2019-04-10T01:47:39.601Z,99700.70
2019-04-10T01:52:44.907Z,99700.31
2019-04-10T01:57:50.163Z,99701.30
2019-04-10T02:02:54.619Z,99701.77
2019-04-10T02:08:07.244Z,99691.02
2019-04-10T02:13:05.410Z,99694.57
2019-04-10T02:18:10.939Z,99695.55
2019-04-10T02:23:16.256Z,99692.18
2019-04-10T02:28:20.781Z,99701.88
2019-04-10T02:33:25.497Z,99697.17
2019-04-10T02:38:49.285Z,99698.16
2019-04-10T02:43:37.971Z,99701.26
2019-04-10T02:48:43.423Z,99703.06
2019-04-10T02:53:48.250Z,99700.94
2019-04-10T02:58:56.690Z,99690.97
2019-04-10T03:04:01.588Z,99700.11
2019-04-10T03:09:26.363Z,99700.11
2019-04-10T03:14:14.764Z,99697.52
2019-04-10T03:19:19.376Z,99693.19
2019-04-10T03:24:24.065Z,99702.88
2019-04-10T03:29:29.621Z,99707.23
2019-04-10T03:34:38.347Z,99701.20
2019-04-10T03:39:40.563Z,99710.83
2019-04-10T03:44:45.252Z,99716.18
2019-04-10T03:49:56.878Z,99716.18
2019-04-10T03:55:02.800Z,99711.00
2019-04-10T04:00:07.868Z,99709.70
2019-04-10T04:05:12.740Z,99711.05
2019-04-10T04:10:18.262Z,99715.39
2019-04-10T04:15:23.946Z,99713.27
2019-04-10T04:20:29.477Z,99723.73
2019-04-10T04:25:34.537Z,99718.93
2019-04-10T04:30:39.130Z,99730.70
2019-04-10T04:35:43.565Z,99732.03
2019-04-10T04:40:48.399Z,99730.25
2019-04-10T04:45:53.126Z,99736.76
2019-04-10T04:50:57.685Z,99735.44
2019-04-10T04:56:03.857Z,99741.94
2019-04-10T05:01:08.480Z,99742.73
2019-04-10T05:06:12.884Z,99743.94
2019-04-10T05:11:18.309Z,99745.61
2019-04-10T05:16:22.812Z,99738.57
2019-04-10T05:21:27.407Z,99740.27
2019-04-10T05:26:32.325Z,99738.44
2019-04-10T05:31:36.890Z,99744.83
2019-04-10T05:36:42.008Z,99751.17
2019-04-10T05:41:47.112Z,99749.34
2019-04-10T05:46:52.668Z,99758.28
2019-04-10T05:51:57.683Z,99763.83
2019-04-10T05:57:02.258Z,99759.19
2019-04-10T06:02:07.844Z,99753.80
2019-04-10T06:07:12.802Z,99754.34
2019-04-10T06:12:18.150Z,99754.20
2019-04-10T06:17:22.931Z,99755.05
2019-04-10T06:22:28.452Z,99756.14
2019-04-10T06:27:34.446Z,99762.73
2019-04-10T06:32:39.762Z,99768.05
2019-04-10T06:37:44.319Z,99776.47
2019-04-10T06:42:53.144Z,99780.06
2019-04-10T06:47:55.878Z,99769.66
2019-04-10T06:53:00.297Z,99768.77
2019-04-10T06:58:04.945Z,99771.14
2019-04-10T07:03:11.632Z,99763.33
2019-04-10T07:08:19.029Z,99770.70
2019-04-10T07:13:22.468Z,99771.31
2019-04-10T07:18:27.020Z,99770.00
2019-04-10T07:23:33.381Z,99764.24
2019-04-10T07:28:39.100Z,99770.56
2019-04-10T07:33:45.165Z,99779.06
2019-04-10T07:38:53.921Z,99787.80
2019-04-10T07:43:57.196Z,99782.39
2019-04-10T07:49:02.990Z,99780.00
2019-04-10T07:54:08.171Z,99779.14
2019-04-10T07:59:13.017Z,99784.06
2019-04-10T08:04:18.254Z,99785.28
2019-04-10T08:09:22.867Z,99786.50
2019-04-10T08:14:27.523Z,99781.64
2019-04-10T08:19:32.805Z,99786.92
2019-04-10T08:24:38.452Z,99786.24
2019-04-10T08:29:44.076Z,99790.12
2019-04-10T08:34:48.811Z,99789.80
2019-04-10T08:39:54.780Z,99792.09
2019-04-10T08:44:59.433Z,99792.10
2019-04-10T08:50:05.686Z,99796.73
2019-04-10T08:55:10.647Z,99791.86
2019-04-10T09:00:16.466Z,99788.25
2019-04-10T09:05:21.664Z,99782.34
2019-04-10T09:10:26.485Z,99786.37
2019-04-10T09:15:31.968Z,99783.04
2019-04-10T09:20:36.811Z,99782.52
2019-04-10T09:25:43.451Z,99781.73
2019-04-10T09:30:51.357Z,99783.77
2019-04-10T09:35:57.598Z,99779.03
2019-04-10T09:41:02.182Z,99777.86
2019-04-10T09:46:06.960Z,99776.14
2019-04-10T09:51:17.622Z,99783.79
2019-04-10T09:56:22.167Z,99787.30
2019-04-10T10:01:30.208Z,99786.88
2019-04-10T10:06:37.895Z,99784.03
2019-04-10T10:11:42.811Z,99781.51
2019-04-10T10:16:48.334Z,99776.45
2019-04-10T10:21:53.256Z,99768.65
2019-04-10T10:26:57.833Z,99767.07
2019-04-10T10:32:02.591Z,99767.09
2019-04-10T10:37:08.430Z,99767.58
2019-04-10T10:42:13.704Z,99770.73
2019-04-10T10:47:18.410Z,99769.46
2019-04-10T10:52:23.681Z,99773.82
2019-04-10T10:57:28.121Z,99771.19
2019-04-10T11:02:33.587Z,99775.14
2019-04-10T11:07:38.845Z,99777.02
2019-04-10T11:12:44.192Z,99782.34
2019-04-10T11:17:50.040Z,99788.75
2019-04-10T11:22:55.850Z,99787.25
2019-04-10T11:28:00.809Z,99791.89
2019-04-10T11:33:06.191Z,99790.38
2019-04-10T11:38:13.353Z,99790.49
2019-04-10T11:43:19.041Z,99790.64
2019-04-10T11:48:25.652Z,99776.89
2019-04-10T11:53:32.720Z,99784.53
2019-04-10T11:58:48.612Z,99780.73
2019-04-10T12:03:48.263Z,99786.88
2019-04-10T12:09:13.715Z,99789.78
2019-04-10T12:13:56.754Z,99790.06
2019-04-10T12:19:01.284Z,99790.47
2019-04-10T12:24:05.884Z,99792.80
2019-04-10T12:29:11.476Z,99794.41
2019-04-10T12:34:16.267Z,99790.41
2019-04-10T12:39:21.151Z,99798.65
2019-04-10T12:44:25.594Z,99795.42
2019-04-10T12:49:30.055Z,99792.75
2019-04-10T12:54:35.478Z,99796.02
2019-04-10T12:59:39.978Z,99799.30
2019-04-10T13:04:44.946Z,99783.80
2019-04-10T13:09:50.489Z,99792.23
2019-04-10T13:14:55.040Z,99785.67
2019-04-10T13:19:59.687Z,99779.62
2019-04-10T13:25:08.167Z,99771.30
2019-04-10T13:30:14.734Z,99787.39
2019-04-10T13:35:20.274Z,99789.23
2019-04-10T13:40:25.776Z,99790.00
2019-04-10T13:45:31.150Z,99781.23
2019-04-10T13:50:36.887Z,99787.41
2019-04-10T13:55:42.250Z,99788.85
2019-04-10T14:00:47.157Z,99797.67
2019-04-10T14:05:52.947Z,99799.27
2019-04-10T14:10:57.602Z,99796.91
2019-04-10T14:16:04.408Z,99799.09
2019-04-10T14:21:14.266Z,99805.58
2019-04-10T14:26:39.145Z,99794.47
2019-04-10T14:31:37.662Z,99798.30
2019-04-10T14:36:42.329Z,99803.95
2019-04-10T14:41:46.765Z,99810.26
2019-04-10T14:46:51.841Z,99793.05
2019-04-10T14:51:56.842Z,99797.45
2019-04-10T14:57:02.377Z,99806.34
2019-04-10T15:02:08.684Z,99807.83
2019-04-10T15:07:14.353Z,99812.87
2019-04-10T15:12:18.889Z,99793.55
2019-04-10T15:17:25.224Z,99809.84
2019-04-10T15:22:29.980Z,99812.13
2019-04-10T15:27:35.500Z,99812.75
2019-04-10T15:32:42.157Z,99810.01
2019-04-10T15:37:47.244Z,99808.53
2019-04-10T15:42:52.347Z,99822.55
2019-04-10T15:47:59.956Z,99825.64
2019-04-10T15:53:05.907Z,99820.48
2019-04-10T15:58:11.048Z,99831.52
2019-04-10T16:03:15.652Z,99826.41
2019-04-10T16:08:20.509Z,99831.55
2019-04-10T16:13:36.651Z,99837.52
2019-04-10T16:18:41.946Z,99836.94
2019-04-10T16:23:49.683Z,99846.03
2019-04-10T16:28:54.085Z,99845.34
2019-04-10T16:33:58.840Z,99850.70
2019-04-10T16:39:05.492Z,99854.34
2019-04-10T16:44:12.823Z,99853.52
2019-04-10T16:49:17.610Z,99857.28
2019-04-10T16:54:22.153Z,99855.25
2019-04-10T16:59:27.784Z,99854.98
2019-04-10T17:04:32.371Z,99851.25
2019-04-10T17:09:37.967Z,99853.61
2019-04-10T17:14:43.806Z,99859.95
2019-04-10T17:19:53.594Z,99874.13
2019-04-10T17:24:55.849Z,99879.55
2019-04-10T17:30:01.260Z,99885.89
2019-04-10T17:35:09.614Z,99886.22
2019-04-10T17:40:28.439Z,99893.53
2019-04-10T17:45:23.240Z,99892.46
2019-04-10T17:50:28.017Z,99891.92
2019-04-10T17:55:33.671Z,99897.70
2019-04-10T18:00:39.985Z,99911.81
2019-04-10T18:05:44.802Z,99921.48
2019-04-10T18:10:52.518Z,99925.02
2019-04-10T18:15:56.960Z,99924.98
2019-04-10T18:21:01.709Z,99933.75
2019-04-10T18:26:06.715Z,99938.21
2019-04-10T18:31:12.459Z,99946.98
2019-04-10T18:36:17.522Z,99950.02
2019-04-10T18:41:22.302Z,99963.16
2019-04-10T18:46:27.092Z,99968.41
2019-04-10T18:51:32.037Z,99975.04
2019-04-10T18:56:37.560Z,99973.73
2019-04-10T19:01:51.556Z,99972.49
2019-04-10T19:07:00.871Z,99978.67
2019-04-10T19:12:05.616Z,99983.06
2019-04-10T19:17:10.967Z,99983.06
2019-04-10T19:22:17.970Z,99991.02
2019-04-10T19:27:25.564Z,99996.27
2019-04-10T19:32:33.179Z,99990.22
2019-04-10T19:37:38.985Z,99987.40
2019-04-10T19:42:45.883Z,99984.47
2019-04-10T19:47:50.680Z,99992.48
2019-04-10T19:52:55.524Z,99991.38
2019-04-10T19:58:01.753Z,100002.87
2019-04-10T20:03:07.777Z,100004.38
2019-04-10T20:08:13.153Z,100009.89
2019-04-10T20:13:18.690Z,99999.66
2019-04-10T20:18:24.414Z,100011.30
2019-04-10T20:23:29.958Z,100020.66
2019-04-10T20:28:34.933Z,100022.56
2019-04-10T20:33:39.620Z,100026.58
2019-04-10T20:38:45.113Z,100029.80
2019-04-10T20:43:49.687Z,100028.19
2019-04-10T20:48:55.057Z,100045.75
2019-04-10T20:54:00.823Z,100047.64
2019-04-10T20:59:07.643Z,100054.33
2019-04-10T21:04:13.039Z,100047.03
2019-04-10T21:09:17.655Z,100051.06
2019-04-10T21:14:23.222Z,100062.53
2019-04-10T21:19:28.955Z,100064.86
2019-04-10T21:24:33.666Z,100078.00
2019-04-10T21:29:46.446Z,100066.30
2019-04-10T21:34:53.543Z,100072.10
2019-04-10T21:39:58.374Z,100081.78
2019-04-10T21:45:03.074Z,100083.18
2019-04-10T21:50:08.871Z,100096.31
2019-04-10T21:55:13.408Z,100090.73
2019-04-10T22:00:20.860Z,100086.89
2019-04-10T22:05:28.066Z,100094.33
2019-04-10T22:10:38.167Z,100087.38
2019-04-10T22:15:44.979Z,100088.73
2019-04-10T22:20:50.093Z,100091.45
2019-04-10T22:25:56.274Z,100104.55
2019-04-10T22:31:00.951Z,100098.49
2019-04-10T22:36:06.596Z,100105.94
2019-04-10T22:41:22.930Z,100107.28
2019-04-10T22:46:17.317Z,100117.33
2019-04-10T22:51:22.798Z,100107.80
2019-04-10T22:56:27.376Z,100097.88
2019-04-10T23:01:32.054Z,100101.34
2019-04-10T23:06:37.537Z,100102.69
2019-04-10T23:11:45.067Z,100111.45
2019-04-10T23:16:48.503Z,100105.80
2019-04-10T23:21:53.007Z,100108.06
2019-04-10T23:26:57.610Z,100100.27
2019-04-10T23:32:02.189Z,100107.70
2019-04-10T23:37:06.823Z,100103.38
2019-04-10T23:42:11.461Z,100097.30
2019-04-10T23:47:16.029Z,100096.41
2019-04-10T23:52:20.535Z,100099.48
2019-04-10T23:57:25.306Z,100108.64
